createdAt,value
2022-07-26T00:08:12.011Z,1.52
2022-07-26T00:18:14.450Z,1.27
2022-07-26T00:28:16.066Z,1.10
2022-07-26T00:38:17.549Z,1.10
2022-07-26T00:48:19.059Z,0.95
2022-07-26T00:58:20.631Z,1.00
2022-07-26T01:08:22.149Z,1.13
2022-07-26T01:18:23.732Z,1.10
2022-07-26T01:28:25.217Z,1.17
2022-07-26T01:38:27.424Z,1.00
2022-07-26T01:48:29.112Z,1.25
2022-07-26T01:58:31.905Z,1.02
2022-07-26T02:08:33.440Z,0.93
2022-07-26T02:18:35.322Z,1.20
2022-07-26T02:28:36.903Z,1.40
2022-07-26T02:38:38.518Z,0.93
2022-07-26T02:48:40.037Z,1.10
2022-07-26T02:58:42.637Z,1.10
2022-07-26T03:08:44.183Z,0.90
2022-07-26T03:18:46.010Z,1.00
2022-07-26T03:28:47.683Z,1.00
2022-07-26T03:38:49.185Z,1.30
2022-07-26T03:48:50.931Z,1.20
2022-07-26T03:58:52.639Z,1.10
2022-07-26T04:08:54.959Z,0.90
2022-07-26T04:18:56.513Z,1.10
2022-07-26T04:28:58.085Z,1.20
2022-07-26T04:38:59.586Z,0.80
2022-07-26T04:49:01.152Z,0.93
2022-07-26T04:59:02.876Z,0.90
2022-07-26T05:09:04.717Z,0.55
2022-07-26T05:19:06.669Z,0.90
2022-07-26T05:29:08.148Z,0.93
2022-07-26T05:39:14.157Z,0.88
2022-07-26T05:49:17.447Z,0.68
2022-07-26T05:59:19.089Z,1.40
2022-07-26T06:09:20.926Z,0.75
2022-07-26T06:19:22.642Z,0.90
2022-07-26T06:29:32.150Z,0.70
2022-07-26T06:39:34.396Z,0.82
2022-07-26T06:49:35.971Z,0.60
2022-07-26T06:59:37.651Z,0.77
2022-07-26T07:09:39.322Z,0.68
2022-07-26T07:19:40.881Z,0.60
2022-07-26T07:29:43.263Z,0.82
2022-07-26T07:39:49.957Z,0.60
2022-07-26T07:49:52.110Z,0.50
2022-07-26T07:59:53.665Z,0.40
2022-07-26T08:09:55.210Z,0.50
2022-07-26T08:20:00.354Z,0.50
2022-07-26T08:30:02.306Z,0.40
2022-07-26T08:40:05.436Z,0.60
2022-07-26T08:50:07.773Z,0.43
2022-07-26T09:00:20.020Z,0.52
2022-07-26T09:10:23.041Z,0.40
2022-07-26T09:20:28.093Z,0.32
2022-07-26T09:30:31.897Z,0.40
2022-07-26T09:40:35.602Z,0.40
2022-07-26T09:50:37.635Z,0.55
2022-07-26T10:00:40.061Z,0.60
2022-07-26T10:11:10.978Z,0.45
2022-07-26T10:21:15.481Z,0.60
2022-07-26T10:31:20.144Z,0.40
2022-07-26T10:41:32.091Z,0.50
2022-07-26T10:51:35.744Z,0.50
2022-07-26T11:01:42.862Z,0.55
2022-07-26T11:11:46.865Z,0.50
2022-07-26T11:21:59.525Z,0.50
2022-07-26T11:32:14.611Z,0.47
2022-07-26T11:42:19.817Z,0.60
2022-07-26T11:52:25.472Z,0.70
2022-07-26T12:02:28.614Z,0.70
2022-07-26T12:12:33.024Z,0.43
2022-07-26T12:22:34.548Z,0.70
2022-07-26T12:32:38.072Z,0.60
2022-07-26T12:42:44.668Z,0.50
2022-07-26T12:52:46.598Z,0.60
2022-07-26T13:02:48.189Z,0.60
2022-07-26T13:12:49.873Z,0.88
2022-07-26T13:22:51.371Z,0.60
2022-07-26T13:32:53.384Z,0.70
2022-07-26T13:42:54.970Z,0.65
2022-07-26T13:52:56.903Z,0.47
2022-07-26T14:02:59.476Z,0.50
2022-07-26T14:13:01.249Z,0.50
2022-07-26T14:23:02.925Z,0.60
2022-07-26T14:33:05.922Z,0.57
2022-07-26T14:43:07.494Z,0.73
2022-07-26T14:53:11.689Z,0.40
2022-07-26T15:03:13.210Z,0.57
2022-07-26T15:13:15.197Z,0.90
2022-07-26T15:23:16.889Z,0.55
2022-07-26T15:33:20.538Z,0.50
2022-07-26T15:43:23.931Z,0.65
2022-07-26T15:53:46.624Z,0.80
2022-07-26T16:03:48.481Z,0.40
2022-07-26T16:13:49.978Z,0.75
2022-07-26T16:23:51.921Z,0.40
2022-07-26T16:33:53.492Z,0.40
2022-07-26T16:43:55.801Z,0.60
2022-07-26T16:53:57.287Z,0.60
2022-07-26T17:03:58.807Z,0.60
2022-07-26T17:14:00.486Z,0.80
2022-07-26T17:24:05.568Z,0.60
2022-07-26T17:34:07.427Z,1.10
2022-07-26T17:44:09.587Z,0.43
2022-07-26T17:54:11.082Z,0.65
2022-07-26T18:04:14.237Z,0.80
2022-07-26T18:14:15.766Z,0.68
2022-07-26T18:24:17.799Z,0.70
2022-07-26T18:34:19.420Z,0.90
2022-07-26T18:44:21.977Z,0.50
2022-07-26T18:54:23.536Z,0.73
2022-07-26T19:04:25.297Z,0.68
2022-07-26T19:14:27.280Z,0.50
2022-07-26T19:24:28.809Z,0.70
2022-07-26T19:34:30.417Z,0.60
2022-07-26T19:44:32.197Z,0.60
2022-07-26T19:54:33.745Z,0.65
2022-07-26T20:04:35.704Z,0.40
2022-07-26T20:14:37.274Z,0.40
2022-07-26T20:24:38.842Z,0.57
2022-07-26T20:34:40.379Z,0.47
2022-07-26T20:44:41.939Z,0.47
2022-07-26T20:54:44.107Z,0.57
2022-07-26T21:04:45.678Z,0.30
2022-07-26T21:14:48.009Z,0.32
2022-07-26T21:24:49.574Z,0.30
2022-07-26T21:34:51.162Z,0.50
2022-07-26T21:44:52.841Z,0.40
2022-07-26T21:54:54.337Z,0.30
2022-07-26T22:04:55.881Z,0.45
2022-07-26T22:14:57.411Z,0.52
2022-07-26T22:24:58.952Z,0.30
2022-07-26T22:35:00.470Z,0.43
2022-07-26T22:45:02.016Z,0.50
2022-07-26T22:55:13.473Z,0.55
2022-07-26T23:05:14.988Z,0.40
2022-07-26T23:15:16.598Z,0.30
2022-07-26T23:25:18.241Z,0.45
2022-07-26T23:35:21.233Z,0.40
2022-07-26T23:45:23.154Z,0.30
2022-07-26T23:55:24.889Z,0.30
